sensor_id;sensor_type;location;lat;lon;timestamp;temperature;humidity
4215;DHT22;2121;48.062;7.850;2023-04-03T00:01:16;5.60;99.90
4215;DHT22;2121;48.062;7.850;2023-04-03T00:03:42;5.70;99.90
4215;DHT22;2121;48.062;7.850;2023-04-03T00:06:09;5.70;99.90
4215;DHT22;2121;48.062;7.850;2023-04-03T00:08:37;5.70;99.90
4215;DHT22;2121;48.062;7.850;2023-04-03T00:11:04;5.70;99.90
4215;DHT22;2121;48.062;7.850;2023-04-03T00:13:31;5.80;99.90
4215;DHT22;2121;48.062;7.850;2023-04-03T00:15:57;5.70;99.90
4215;DHT22;2121;48.062;7.850;2023-04-03T00:18:23;5.80;99.90
4215;DHT22;2121;48.062;7.850;2023-04-03T00:20:49;5.80;99.90
4215;DHT22;2121;48.062;7.850;2023-04-03T00:23:15;5.90;99.90
4215;DHT22;2121;48.062;7.850;2023-04-03T00:25:41;5.90;99.90
4215;DHT22;2121;48.062;7.850;2023-04-03T00:28:08;6.00;99.90
4215;DHT22;2121;48.062;7.850;2023-04-03T00:30:34;6.00;99.90
4215;DHT22;2121;48.062;7.850;2023-04-03T00:33:00;6.00;99.90
4215;DHT22;2121;48.062;7.850;2023-04-03T00:35:26;5.90;99.90
4215;DHT22;2121;48.062;7.850;2023-04-03T00:37:53;5.70;99.90
4215;DHT22;2121;48.062;7.850;2023-04-03T00:40:22;5.70;99.90
4215;DHT22;2121;48.062;7.850;2023-04-03T00:42:55;5.70;99.90
4215;DHT22;2121;48.062;7.850;2023-04-03T00:45:29;5.70;99.90
4215;DHT22;2121;48.062;7.850;2023-04-03T00:48:04;5.70;99.90
4215;DHT22;2121;48.062;7.850;2023-04-03T00:50:33;5.80;99.90
4215;DHT22;2121;48.062;7.850;2023-04-03T00:53:01;5.80;99.90
4215;DHT22;2121;48.062;7.850;2023-04-03T00:55:29;5.80;99.90
4215;DHT22;2121;48.062;7.850;2023-04-03T00:57:55;5.80;99.90
4215;DHT22;2121;48.062;7.850;2023-04-03T01:00:23;5.80;99.90
4215;DHT22;2121;48.062;7.850;2023-04-03T01:02:50;5.80;99.90
4215;DHT22;2121;48.062;7.850;2023-04-03T01:05:17;5.80;99.90
4215;DHT22;2121;48.062;7.850;2023-04-03T01:07:45;5.80;99.90
4215;DHT22;2121;48.062;7.850;2023-04-03T01:10:14;5.70;99.90
4215;DHT22;2121;48.062;7.850;2023-04-03T01:12:43;5.70;99.90
4215;DHT22;2121;48.062;7.850;2023-04-03T01:15:13;5.70;99.90
4215;DHT22;2121;48.062;7.850;2023-04-03T01:17:49;5.70;99.90
4215;DHT22;2121;48.062;7.850;2023-04-03T01:25:40;5.60;99.90
4215;DHT22;2121;48.062;7.850;2023-04-03T01:28:13;5.50;99.90
4215;DHT22;2121;48.062;7.850;2023-04-03T01:33:16;5.50;99.90
4215;DHT22;2121;48.062;7.850;2023-04-03T01:35:42;5.40;99.90
4215;DHT22;2121;48.062;7.850;2023-04-03T01:38:08;5.50;99.90
4215;DHT22;2121;48.062;7.850;2023-04-03T01:40:34;5.40;99.90
4215;DHT22;2121;48.062;7.850;2023-04-03T01:42:59;5.40;99.90
4215;DHT22;2121;48.062;7.850;2023-04-03T01:45:25;5.40;99.90
4215;DHT22;2121;48.062;7.850;2023-04-03T01:47:51;5.40;99.90
4215;DHT22;2121;48.062;7.850;2023-04-03T01:50:17;5.30;99.90
4215;DHT22;2121;48.062;7.850;2023-04-03T01:52:42;5.30;99.90
4215;DHT22;2121;48.062;7.850;2023-04-03T01:55:08;5.30;99.90
4215;DHT22;2121;48.062;7.850;2023-04-03T01:57:34;5.10;99.90
4215;DHT22;2121;48.062;7.850;2023-04-03T02:00:00;5.20;99.90
4215;DHT22;2121;48.062;7.850;2023-04-03T02:02:26;5.20;99.90
4215;DHT22;2121;48.062;7.850;2023-04-03T02:04:51;5.20;99.90
4215;DHT22;2121;48.062;7.850;2023-04-03T02:07:17;5.20;99.90
4215;DHT22;2121;48.062;7.850;2023-04-03T02:09:43;5.20;99.90
4215;DHT22;2121;48.062;7.850;2023-04-03T02:12:08;5.30;99.90
4215;DHT22;2121;48.062;7.850;2023-04-03T02:14:34;5.20;99.90
4215;DHT22;2121;48.062;7.850;2023-04-03T02:17:01;5.20;99.90
4215;DHT22;2121;48.062;7.850;2023-04-03T02:19:34;5.20;99.90
4215;DHT22;2121;48.062;7.850;2023-04-03T02:22:01;5.20;99.90
4215;DHT22;2121;48.062;7.850;2023-04-03T02:24:28;5.10;99.90
4215;DHT22;2121;48.062;7.850;2023-04-03T02:26:54;5.10;99.90
4215;DHT22;2121;48.062;7.850;2023-04-03T02:29:20;5.10;99.90
4215;DHT22;2121;48.062;7.850;2023-04-03T02:31:46;5.10;99.90
4215;DHT22;2121;48.062;7.850;2023-04-03T02:34:11;5.10;99.90
4215;DHT22;2121;48.062;7.850;2023-04-03T02:36:37;5.10;99.90
4215;DHT22;2121;48.062;7.850;2023-04-03T02:39:03;5.10;99.90
4215;DHT22;2121;48.062;7.850;2023-04-03T02:41:29;5.10;99.90
4215;DHT22;2121;48.062;7.850;2023-04-03T02:44:02;5.10;99.90
4215;DHT22;2121;48.062;7.850;2023-04-03T02:46:29;5.00;99.90
4215;DHT22;2121;48.062;7.850;2023-04-03T02:48:55;5.00;99.90
4215;DHT22;2121;48.062;7.850;2023-04-03T02:51:21;5.00;99.90
4215;DHT22;2121;48.062;7.850;2023-04-03T02:53:49;5.00;99.90
4215;DHT22;2121;48.062;7.850;2023-04-03T02:56:15;4.90;99.90
4215;DHT22;2121;48.062;7.850;2023-04-03T02:58:42;4.90;99.90
4215;DHT22;2121;48.062;7.850;2023-04-03T03:01:08;4.90;99.90
4215;DHT22;2121;48.062;7.850;2023-04-03T03:03:34;4.90;99.90
4215;DHT22;2121;48.062;7.850;2023-04-03T03:06:04;4.90;99.90
4215;DHT22;2121;48.062;7.850;2023-04-03T03:08:33;4.90;99.90
4215;DHT22;2121;48.062;7.850;2023-04-03T03:10:58;4.90;99.90
4215;DHT22;2121;48.062;7.850;2023-04-03T03:13:25;4.90;99.90
4215;DHT22;2121;48.062;7.850;2023-04-03T03:15:51;4.90;99.90
4215;DHT22;2121;48.062;7.850;2023-04-03T03:18:17;4.90;99.90
4215;DHT22;2121;48.062;7.850;2023-04-03T03:20:43;4.90;99.90
4215;DHT22;2121;48.062;7.850;2023-04-03T03:23:09;4.90;99.90
4215;DHT22;2121;48.062;7.850;2023-04-03T03:25:39;4.90;99.90
4215;DHT22;2121;48.062;7.850;2023-04-03T03:28:05;4.90;99.90
4215;DHT22;2121;48.062;7.850;2023-04-03T03:30:32;4.80;99.90
4215;DHT22;2121;48.062;7.850;2023-04-03T03:32:57;4.70;99.90
4215;DHT22;2121;48.062;7.850;2023-04-03T03:35:23;4.70;99.90
4215;DHT22;2121;48.062;7.850;2023-04-03T03:37:49;4.70;99.90
4215;DHT22;2121;48.062;7.850;2023-04-03T03:40:15;4.60;99.90
4215;DHT22;2121;48.062;7.850;2023-04-03T03:42:40;4.70;99.90
4215;DHT22;2121;48.062;7.850;2023-04-03T03:45:07;4.60;99.90
4215;DHT22;2121;48.062;7.850;2023-04-03T03:47:33;4.70;99.90
4215;DHT22;2121;48.062;7.850;2023-04-03T03:49:59;4.70;99.90
4215;DHT22;2121;48.062;7.850;2023-04-03T03:52:25;4.70;99.90
4215;DHT22;2121;48.062;7.850;2023-04-03T03:54:51;4.70;99.90
4215;DHT22;2121;48.062;7.850;2023-04-03T03:57:17;4.70;99.90
4215;DHT22;2121;48.062;7.850;2023-04-03T03:59:43;4.70;99.90
4215;DHT22;2121;48.062;7.850;2023-04-03T04:02:10;4.70;99.90
4215;DHT22;2121;48.062;7.850;2023-04-03T04:04:36;4.70;99.90
4215;DHT22;2121;48.062;7.850;2023-04-03T04:07:03;4.70;99.90
4215;DHT22;2121;48.062;7.850;2023-04-03T04:09:28;4.60;99.90
4215;DHT22;2121;48.062;7.850;2023-04-03T04:11:55;4.60;99.90
4215;DHT22;2121;48.062;7.850;2023-04-03T04:14:21;4.60;99.90
4215;DHT22;2121;48.062;7.850;2023-04-03T04:16:47;4.60;99.90
4215;DHT22;2121;48.062;7.850;2023-04-03T04:19:13;4.60;99.90
4215;DHT22;2121;48.062;7.850;2023-04-03T04:21:39;4.60;99.90
4215;DHT22;2121;48.062;7.850;2023-04-03T04:24:07;4.60;99.90
4215;DHT22;2121;48.062;7.850;2023-04-03T04:26:34;4.50;99.90
4215;DHT22;2121;48.062;7.850;2023-04-03T04:29:00;4.60;99.90
4215;DHT22;2121;48.062;7.850;2023-04-03T04:31:26;4.50;99.90
4215;DHT22;2121;48.062;7.850;2023-04-03T04:33:52;4.50;99.90
4215;DHT22;2121;48.062;7.850;2023-04-03T04:36:18;4.50;99.90
4215;DHT22;2121;48.062;7.850;2023-04-03T04:38:44;4.50;99.90
4215;DHT22;2121;48.062;7.850;2023-04-03T04:41:10;4.50;99.90
4215;DHT22;2121;48.062;7.850;2023-04-03T04:43:36;4.60;99.90
4215;DHT22;2121;48.062;7.850;2023-04-03T04:46:06;4.60;99.90
4215;DHT22;2121;48.062;7.850;2023-04-03T04:48:34;4.50;99.90
4215;DHT22;2121;48.062;7.850;2023-04-03T04:51:00;4.50;99.90
4215;DHT22;2121;48.062;7.850;2023-04-03T04:53:26;4.50;99.90
4215;DHT22;2121;48.062;7.850;2023-04-03T04:55:52;4.60;99.90
4215;DHT22;2121;48.062;7.850;2023-04-03T04:58:19;4.50;99.90
4215;DHT22;2121;48.062;7.850;2023-04-03T05:00:45;4.50;99.90
4215;DHT22;2121;48.062;7.850;2023-04-03T05:03:11;4.60;99.90
4215;DHT22;2121;48.062;7.850;2023-04-03T05:05:36;4.60;99.90
4215;DHT22;2121;48.062;7.850;2023-04-03T05:08:03;4.60;99.90
4215;DHT22;2121;48.062;7.850;2023-04-03T05:10:29;4.70;99.90
4215;DHT22;2121;48.062;7.850;2023-04-03T05:12:55;4.70;99.90
4215;DHT22;2121;48.062;7.850;2023-04-03T05:15:21;4.70;99.90
4215;DHT22;2121;48.062;7.850;2023-04-03T05:17:46;4.80;99.90
4215;DHT22;2121;48.062;7.850;2023-04-03T05:20:12;4.80;99.90
4215;DHT22;2121;48.062;7.850;2023-04-03T05:22:38;4.70;99.90
4215;DHT22;2121;48.062;7.850;2023-04-03T05:25:04;4.70;99.90
4215;DHT22;2121;48.062;7.850;2023-04-03T05:27:31;4.70;99.90
4215;DHT22;2121;48.062;7.850;2023-04-03T05:29:57;4.70;99.90
4215;DHT22;2121;48.062;7.850;2023-04-03T05:32:23;4.80;99.90
4215;DHT22;2121;48.062;7.850;2023-04-03T05:34:52;4.80;99.90
4215;DHT22;2121;48.062;7.850;2023-04-03T05:37:18;4.80;99.90
4215;DHT22;2121;48.062;7.850;2023-04-03T05:39:43;4.90;99.90
4215;DHT22;2121;48.062;7.850;2023-04-03T05:42:09;4.90;99.90
4215;DHT22;2121;48.062;7.850;2023-04-03T05:44:37;5.00;99.90
4215;DHT22;2121;48.062;7.850;2023-04-03T05:47:03;5.00;99.90
4215;DHT22;2121;48.062;7.850;2023-04-03T05:49:31;5.10;99.90
4215;DHT22;2121;48.062;7.850;2023-04-03T05:51:56;5.20;99.90
4215;DHT22;2121;48.062;7.850;2023-04-03T05:54:26;5.10;99.90
4215;DHT22;2121;48.062;7.850;2023-04-03T05:56:52;5.20;99.90
4215;DHT22;2121;48.062;7.850;2023-04-03T05:59:19;5.20;99.90
4215;DHT22;2121;48.062;7.850;2023-04-03T06:01:45;5.20;99.90
4215;DHT22;2121;48.062;7.850;2023-04-03T06:04:12;5.40;99.90
4215;DHT22;2121;48.062;7.850;2023-04-03T06:09:22;5.40;99.90
4215;DHT22;2121;48.062;7.850;2023-04-03T06:11:50;5.40;99.90
4215;DHT22;2121;48.062;7.850;2023-04-03T06:14:16;5.50;99.90
4215;DHT22;2121;48.062;7.850;2023-04-03T06:16:42;5.50;99.90
4215;DHT22;2121;48.062;7.850;2023-04-03T06:19:09;5.60;99.90
4215;DHT22;2121;48.062;7.850;2023-04-03T06:21:35;5.60;99.90
4215;DHT22;2121;48.062;7.850;2023-04-03T06:24:02;5.60;99.90
4215;DHT22;2121;48.062;7.850;2023-04-03T06:26:29;5.60;99.90
4215;DHT22;2121;48.062;7.850;2023-04-03T06:28:55;5.60;99.90
4215;DHT22;2121;48.062;7.850;2023-04-03T06:31:21;5.60;99.90
4215;DHT22;2121;48.062;7.850;2023-04-03T06:33:47;5.70;99.90
4215;DHT22;2121;48.062;7.850;2023-04-03T06:36:13;5.80;99.90
4215;DHT22;2121;48.062;7.850;2023-04-03T06:38:39;5.90;99.90
4215;DHT22;2121;48.062;7.850;2023-04-03T06:41:04;5.90;99.90
4215;DHT22;2121;48.062;7.850;2023-04-03T06:43:30;6.10;99.90
4215;DHT22;2121;48.062;7.850;2023-04-03T06:45:56;6.10;99.90
4215;DHT22;2121;48.062;7.850;2023-04-03T06:48:22;6.40;99.90
4215;DHT22;2121;48.062;7.850;2023-04-03T06:50:48;6.40;99.90
4215;DHT22;2121;48.062;7.850;2023-04-03T06:53:14;6.50;99.90
4215;DHT22;2121;48.062;7.850;2023-04-03T06:55:40;6.70;99.90
4215;DHT22;2121;48.062;7.850;2023-04-03T06:58:06;6.80;99.90
4215;DHT22;2121;48.062;7.850;2023-04-03T07:00:32;7.00;99.90
4215;DHT22;2121;48.062;7.850;2023-04-03T07:02:58;7.00;99.90
4215;DHT22;2121;48.062;7.850;2023-04-03T07:05:24;7.20;99.90
4215;DHT22;2121;48.062;7.850;2023-04-03T07:07:50;7.40;99.90
4215;DHT22;2121;48.062;7.850;2023-04-03T07:10:17;7.50;99.90
4215;DHT22;2121;48.062;7.850;2023-04-03T07:12:43;7.70;99.90
4215;DHT22;2121;48.062;7.850;2023-04-03T07:15:09;7.80;99.90
4215;DHT22;2121;48.062;7.850;2023-04-03T07:17:35;7.90;99.90
4215;DHT22;2121;48.062;7.850;2023-04-03T07:20:02;8.00;99.90
4215;DHT22;2121;48.062;7.850;2023-04-03T07:22:29;8.00;99.80
4215;DHT22;2121;48.062;7.850;2023-04-03T07:24:55;8.10;99.90
4215;DHT22;2121;48.062;7.850;2023-04-03T07:27:21;8.10;99.30
4215;DHT22;2121;48.062;7.850;2023-04-03T07:29:47;8.20;99.10
4215;DHT22;2121;48.062;7.850;2023-04-03T07:32:14;8.20;98.40
4215;DHT22;2121;48.062;7.850;2023-04-03T07:34:40;8.30;98.00
4215;DHT22;2121;48.062;7.850;2023-04-03T07:37:06;8.40;97.70
4215;DHT22;2121;48.062;7.850;2023-04-03T07:39:32;8.50;97.20
4215;DHT22;2121;48.062;7.850;2023-04-03T07:41:58;8.40;96.50
4215;DHT22;2121;48.062;7.850;2023-04-03T07:44:24;8.30;96.10
4215;DHT22;2121;48.062;7.850;2023-04-03T07:46:50;8.20;95.80
4215;DHT22;2121;48.062;7.850;2023-04-03T07:49:17;8.20;96.00
4215;DHT22;2121;48.062;7.850;2023-04-03T07:51:44;8.20;96.20
4215;DHT22;2121;48.062;7.850;2023-04-03T07:54:10;8.20;95.90
4215;DHT22;2121;48.062;7.850;2023-04-03T07:56:36;8.10;95.60
4215;DHT22;2121;48.062;7.850;2023-04-03T07:59:02;8.00;95.90
4215;DHT22;2121;48.062;7.850;2023-04-03T08:01:28;8.00;96.00
4215;DHT22;2121;48.062;7.850;2023-04-03T08:03:54;8.10;95.90
4215;DHT22;2121;48.062;7.850;2023-04-03T08:06:20;8.10;95.30
4215;DHT22;2121;48.062;7.850;2023-04-03T08:08:45;8.30;95.70
4215;DHT22;2121;48.062;7.850;2023-04-03T08:11:12;8.40;94.80
4215;DHT22;2121;48.062;7.850;2023-04-03T08:13:38;8.40;94.40
4215;DHT22;2121;48.062;7.850;2023-04-03T08:16:11;8.40;94.20
4215;DHT22;2121;48.062;7.850;2023-04-03T08:18:38;8.40;95.00
4215;DHT22;2121;48.062;7.850;2023-04-03T08:21:09;8.10;94.80
4215;DHT22;2121;48.062;7.850;2023-04-03T08:23:36;8.10;94.70
4215;DHT22;2121;48.062;7.850;2023-04-03T08:26:09;8.20;94.50
4215;DHT22;2121;48.062;7.850;2023-04-03T08:28:38;8.20;94.60
4215;DHT22;2121;48.062;7.850;2023-04-03T08:31:10;8.20;94.70
4215;DHT22;2121;48.062;7.850;2023-04-03T08:33:38;8.30;95.00
4215;DHT22;2121;48.062;7.850;2023-04-03T08:36:15;8.40;94.00
4215;DHT22;2121;48.062;7.850;2023-04-03T08:38:43;8.40;94.30
4215;DHT22;2121;48.062;7.850;2023-04-03T08:44:29;8.20;94.20
4215;DHT22;2121;48.062;7.850;2023-04-03T08:47:38;8.20;94.40
4215;DHT22;2121;48.062;7.850;2023-04-03T08:50:20;8.30;94.50
4215;DHT22;2121;48.062;7.850;2023-04-03T08:52:54;8.60;93.80
4215;DHT22;2121;48.062;7.850;2023-04-03T08:58:15;9.10;93.10
4215;DHT22;2121;48.062;7.850;2023-04-03T09:03:46;9.00;92.60
4215;DHT22;2121;48.062;7.850;2023-04-03T09:06:16;9.10;92.00
4215;DHT22;2121;48.062;7.850;2023-04-03T09:12:22;9.70;92.90
4215;DHT22;2121;48.062;7.850;2023-04-03T09:20:11;10.10;90.60
4215;DHT22;2121;48.062;7.850;2023-04-03T09:22:45;10.30;90.50
4215;DHT22;2121;48.062;7.850;2023-04-03T09:25:23;10.70;91.00
4215;DHT22;2121;48.062;7.850;2023-04-03T09:27:52;10.80;90.30
4215;DHT22;2121;48.062;7.850;2023-04-03T09:30:21;10.70;90.00
4215;DHT22;2121;48.062;7.850;2023-04-03T09:32:51;10.50;89.50
4215;DHT22;2121;48.062;7.850;2023-04-03T09:35:29;10.40;90.00
4215;DHT22;2121;48.062;7.850;2023-04-03T09:38:21;10.80;88.60
4215;DHT22;2121;48.062;7.850;2023-04-03T09:41:07;10.90;85.70
4215;DHT22;2121;48.062;7.850;2023-04-03T09:43:52;10.80;83.80
4215;DHT22;2121;48.062;7.850;2023-04-03T09:46:30;10.70;84.80
4215;DHT22;2121;48.062;7.850;2023-04-03T09:48:59;10.60;85.50
4215;DHT22;2121;48.062;7.850;2023-04-03T09:51:30;10.70;86.80
4215;DHT22;2121;48.062;7.850;2023-04-03T09:53:57;10.80;87.90
4215;DHT22;2121;48.062;7.850;2023-04-03T09:56:25;11.10;86.70
4215;DHT22;2121;48.062;7.850;2023-04-03T10:01:31;11.20;83.60
4215;DHT22;2121;48.062;7.850;2023-04-03T10:06:44;11.50;83.30
4215;DHT22;2121;48.062;7.850;2023-04-03T10:09:25;11.30;83.30
4215;DHT22;2121;48.062;7.850;2023-04-03T10:12:11;11.50;84.40
4215;DHT22;2121;48.062;7.850;2023-04-03T10:17:32;11.00;82.20
4215;DHT22;2121;48.062;7.850;2023-04-03T10:20:33;10.80;83.90
4215;DHT22;2121;48.062;7.850;2023-04-03T10:34:45;10.70;84.00
4215;DHT22;2121;48.062;7.850;2023-04-03T10:39:50;10.80;83.40
4215;DHT22;2121;48.062;7.850;2023-04-03T10:45:26;10.40;83.10
4215;DHT22;2121;48.062;7.850;2023-04-03T10:48:07;10.70;82.80
4215;DHT22;2121;48.062;7.850;2023-04-03T10:53:57;11.10;82.70
4215;DHT22;2121;48.062;7.850;2023-04-03T10:56:45;11.30;82.00
4215;DHT22;2121;48.062;7.850;2023-04-03T10:59:53;11.70;83.10
4215;DHT22;2121;48.062;7.850;2023-04-03T11:02:23;11.70;81.60
4215;DHT22;2121;48.062;7.850;2023-04-03T11:05:01;11.80;83.30
4215;DHT22;2121;48.062;7.850;2023-04-03T11:07:37;11.50;81.30
4215;DHT22;2121;48.062;7.850;2023-04-03T11:10:11;11.70;82.10
4215;DHT22;2121;48.062;7.850;2023-04-03T11:15:24;11.50;81.40
4215;DHT22;2121;48.062;7.850;2023-04-03T11:18:27;11.20;82.20
4215;DHT22;2121;48.062;7.850;2023-04-03T11:23:40;10.70;82.40
4215;DHT22;2121;48.062;7.850;2023-04-03T11:26:19;10.80;82.20
4215;DHT22;2121;48.062;7.850;2023-04-03T11:28:52;10.80;82.40
4215;DHT22;2121;48.062;7.850;2023-04-03T11:34:37;11.60;81.40
4215;DHT22;2121;48.062;7.850;2023-04-03T11:37:33;12.00;80.90
4215;DHT22;2121;48.062;7.850;2023-04-03T11:42:42;12.40;80.10
4215;DHT22;2121;48.062;7.850;2023-04-03T11:45:36;12.10;80.40
4215;DHT22;2121;48.062;7.850;2023-04-03T11:50:56;11.90;80.80
4215;DHT22;2121;48.062;7.850;2023-04-03T11:56:46;11.90;79.80
4215;DHT22;2121;48.062;7.850;2023-04-03T12:01:53;12.00;80.00
4215;DHT22;2121;48.062;7.850;2023-04-03T12:04:23;11.80;80.80
4215;DHT22;2121;48.062;7.850;2023-04-03T12:07:00;11.50;81.70
4215;DHT22;2121;48.062;7.850;2023-04-03T12:10:14;11.90;81.10
4215;DHT22;2121;48.062;7.850;2023-04-03T12:12:37;12.10;80.10
4215;DHT22;2121;48.062;7.850;2023-04-03T12:18:46;10.90;83.00
4215;DHT22;2121;48.062;7.850;2023-04-03T12:21:17;11.00;81.40
4215;DHT22;2121;48.062;7.850;2023-04-03T12:30:16;11.70;81.70
4215;DHT22;2121;48.062;7.850;2023-04-03T12:32:56;12.50;81.00
4215;DHT22;2121;48.062;7.850;2023-04-03T12:35:43;12.70;81.20
4215;DHT22;2121;48.062;7.850;2023-04-03T12:43:50;11.60;81.30
4215;DHT22;2121;48.062;7.850;2023-04-03T12:46:33;11.60;81.60
4215;DHT22;2121;48.062;7.850;2023-04-03T12:49:33;11.70;80.20
4215;DHT22;2121;48.062;7.850;2023-04-03T12:52:21;11.50;81.30
4215;DHT22;2121;48.062;7.850;2023-04-03T12:54:52;12.00;83.00
4215;DHT22;2121;48.062;7.850;2023-04-03T12:57:21;12.30;80.60
4215;DHT22;2121;48.062;7.850;2023-04-03T12:59:50;12.60;80.10
4215;DHT22;2121;48.062;7.850;2023-04-03T13:02:30;12.60;78.90
4215;DHT22;2121;48.062;7.850;2023-04-03T13:05:06;12.70;79.80
4215;DHT22;2121;48.062;7.850;2023-04-03T13:07:36;13.00;79.00
4215;DHT22;2121;48.062;7.850;2023-04-03T13:12:52;12.20;78.70
4215;DHT22;2121;48.062;7.850;2023-04-03T13:17:52;11.50;81.50
4215;DHT22;2121;48.062;7.850;2023-04-03T13:20:23;11.40;80.80
4215;DHT22;2121;48.062;7.850;2023-04-03T13:25:36;11.60;80.80
4215;DHT22;2121;48.062;7.850;2023-04-03T13:28:07;11.80;81.70
4215;DHT22;2121;48.062;7.850;2023-04-03T13:30:37;11.80;80.30
4215;DHT22;2121;48.062;7.850;2023-04-03T13:33:18;11.60;81.20
4215;DHT22;2121;48.062;7.850;2023-04-03T13:35:47;11.50;80.70
4215;DHT22;2121;48.062;7.850;2023-04-03T13:38:30;11.50;82.30
4215;DHT22;2121;48.062;7.850;2023-04-03T13:41:00;11.50;82.10
4215;DHT22;2121;48.062;7.850;2023-04-03T13:43:36;11.60;81.00
4215;DHT22;2121;48.062;7.850;2023-04-03T13:48:49;12.00;80.60
4215;DHT22;2121;48.062;7.850;2023-04-03T13:54:01;11.80;79.20
4215;DHT22;2121;48.062;7.850;2023-04-03T13:56:41;11.60;80.40
4215;DHT22;2121;48.062;7.850;2023-04-03T14:01:55;10.80;81.40
4215;DHT22;2121;48.062;7.850;2023-04-03T14:07:13;10.90;81.30
4215;DHT22;2121;48.062;7.850;2023-04-03T14:09:41;10.80;81.00
4215;DHT22;2121;48.062;7.850;2023-04-03T14:15:26;10.70;81.10
4215;DHT22;2121;48.062;7.850;2023-04-03T14:17:54;10.50;81.90
4215;DHT22;2121;48.062;7.850;2023-04-03T14:20:24;10.10;80.70
4215;DHT22;2121;48.062;7.850;2023-04-03T14:22:51;10.00;82.20
4215;DHT22;2121;48.062;7.850;2023-04-03T14:25:19;10.00;82.90
4215;DHT22;2121;48.062;7.850;2023-04-03T14:27:48;10.10;83.10
4215;DHT22;2121;48.062;7.850;2023-04-03T14:30:29;10.00;82.80
4215;DHT22;2121;48.062;7.850;2023-04-03T14:32:57;10.00;83.70
4215;DHT22;2121;48.062;7.850;2023-04-03T14:35:23;9.90;83.50
4215;DHT22;2121;48.062;7.850;2023-04-03T14:37:51;10.20;84.10
4215;DHT22;2121;48.062;7.850;2023-04-03T14:40:26;10.40;83.10
4215;DHT22;2121;48.062;7.850;2023-04-03T14:42:52;10.40;81.40
4215;DHT22;2121;48.062;7.850;2023-04-03T14:45:22;10.40;82.80
4215;DHT22;2121;48.062;7.850;2023-04-03T14:47:51;10.40;82.40
4215;DHT22;2121;48.062;7.850;2023-04-03T14:50:21;10.30;81.80
4215;DHT22;2121;48.062;7.850;2023-04-03T14:52:50;10.30;82.40
4215;DHT22;2121;48.062;7.850;2023-04-03T14:55:21;10.20;81.40
4215;DHT22;2121;48.062;7.850;2023-04-03T14:57:48;10.00;80.50
4215;DHT22;2121;48.062;7.850;2023-04-03T15:00:17;10.00;81.80
4215;DHT22;2121;48.062;7.850;2023-04-03T15:02:44;10.10;81.90
4215;DHT22;2121;48.062;7.850;2023-04-03T15:05:12;9.90;83.30
4215;DHT22;2121;48.062;7.850;2023-04-03T15:07:43;9.80;83.70
4215;DHT22;2121;48.062;7.850;2023-04-03T15:12:49;9.30;82.80
4215;DHT22;2121;48.062;7.850;2023-04-03T15:15:17;9.20;83.00
4215;DHT22;2121;48.062;7.850;2023-04-03T15:17:45;9.20;84.00
4215;DHT22;2121;48.062;7.850;2023-04-03T15:20:15;9.30;83.80
4215;DHT22;2121;48.062;7.850;2023-04-03T15:22:43;9.40;84.30
4215;DHT22;2121;48.062;7.850;2023-04-03T15:25:09;9.20;82.60
4215;DHT22;2121;48.062;7.850;2023-04-03T15:27:35;9.10;82.20
4215;DHT22;2121;48.062;7.850;2023-04-03T15:30:04;9.00;82.60
4215;DHT22;2121;48.062;7.850;2023-04-03T15:32:31;8.80;80.60
4215;DHT22;2121;48.062;7.850;2023-04-03T15:34:57;8.90;82.50
4215;DHT22;2121;48.062;7.850;2023-04-03T15:37:23;9.20;81.20
4215;DHT22;2121;48.062;7.850;2023-04-03T15:39:49;9.50;80.30
4215;DHT22;2121;48.062;7.850;2023-04-03T15:42:14;9.80;80.00
4215;DHT22;2121;48.062;7.850;2023-04-03T15:44:40;9.60;80.90
4215;DHT22;2121;48.062;7.850;2023-04-03T15:47:06;9.30;81.60
4215;DHT22;2121;48.062;7.850;2023-04-03T15:49:33;9.30;82.10
4215;DHT22;2121;48.062;7.850;2023-04-03T15:51:59;9.40;82.60
4215;DHT22;2121;48.062;7.850;2023-04-03T15:54:25;9.40;83.10
4215;DHT22;2121;48.062;7.850;2023-04-03T15:56:52;9.40;83.40
4215;DHT22;2121;48.062;7.850;2023-04-03T15:59:18;9.40;82.10
4215;DHT22;2121;48.062;7.850;2023-04-03T16:01:44;9.30;84.00
4215;DHT22;2121;48.062;7.850;2023-04-03T16:04:10;9.10;82.10
4215;DHT22;2121;48.062;7.850;2023-04-03T16:06:37;8.80;81.70
4215;DHT22;2121;48.062;7.850;2023-04-03T16:09:03;8.70;81.80
4215;DHT22;2121;48.062;7.850;2023-04-03T16:11:30;8.70;83.30
4215;DHT22;2121;48.062;7.850;2023-04-03T16:13:56;8.80;83.20
4215;DHT22;2121;48.062;7.850;2023-04-03T16:16:23;8.70;82.00
4215;DHT22;2121;48.062;7.850;2023-04-03T16:18:51;8.60;82.70
4215;DHT22;2121;48.062;7.850;2023-04-03T16:21:17;8.50;83.60
4215;DHT22;2121;48.062;7.850;2023-04-03T16:23:43;8.60;84.20
4215;DHT22;2121;48.062;7.850;2023-04-03T16:26:10;8.50;83.50
4215;DHT22;2121;48.062;7.850;2023-04-03T16:28:36;8.50;82.60
4215;DHT22;2121;48.062;7.850;2023-04-03T16:31:02;8.60;83.30
4215;DHT22;2121;48.062;7.850;2023-04-03T16:33:29;8.60;81.70
4215;DHT22;2121;48.062;7.850;2023-04-03T16:35:55;8.50;81.30
4215;DHT22;2121;48.062;7.850;2023-04-03T16:38:21;8.40;82.50
4215;DHT22;2121;48.062;7.850;2023-04-03T16:40:48;8.40;83.70
4215;DHT22;2121;48.062;7.850;2023-04-03T16:43:15;8.30;82.90
4215;DHT22;2121;48.062;7.850;2023-04-03T16:45:42;8.20;84.10
4215;DHT22;2121;48.062;7.850;2023-04-03T16:48:07;8.30;84.90
4215;DHT22;2121;48.062;7.850;2023-04-03T16:50:34;8.20;84.70
4215;DHT22;2121;48.062;7.850;2023-04-03T16:52:59;8.20;83.70
4215;DHT22;2121;48.062;7.850;2023-04-03T16:55:25;8.00;84.00
4215;DHT22;2121;48.062;7.850;2023-04-03T16:57:51;7.90;79.90
4215;DHT22;2121;48.062;7.850;2023-04-03T17:00:17;7.90;79.90
4215;DHT22;2121;48.062;7.850;2023-04-03T17:02:43;7.90;80.90
4215;DHT22;2121;48.062;7.850;2023-04-03T17:05:08;7.90;81.50
4215;DHT22;2121;48.062;7.850;2023-04-03T17:07:34;7.90;81.70
4215;DHT22;2121;48.062;7.850;2023-04-03T17:10:00;7.80;81.50
4215;DHT22;2121;48.062;7.850;2023-04-03T17:12:26;7.60;81.60
4215;DHT22;2121;48.062;7.850;2023-04-03T17:14:52;7.60;82.60
4215;DHT22;2121;48.062;7.850;2023-04-03T17:17:23;7.50;83.20
4215;DHT22;2121;48.062;7.850;2023-04-03T17:19:50;7.40;82.90
4215;DHT22;2121;48.062;7.850;2023-04-03T17:22:16;7.30;83.50
4215;DHT22;2121;48.062;7.850;2023-04-03T17:24:42;7.10;83.10
4215;DHT22;2121;48.062;7.850;2023-04-03T17:27:09;7.00;83.30
4215;DHT22;2121;48.062;7.850;2023-04-03T17:29:35;7.00;83.70
4215;DHT22;2121;48.062;7.850;2023-04-03T17:32:00;6.90;83.60
4215;DHT22;2121;48.062;7.850;2023-04-03T17:34:26;6.80;84.90
4215;DHT22;2121;48.062;7.850;2023-04-03T17:36:52;6.70;84.80
4215;DHT22;2121;48.062;7.850;2023-04-03T17:39:18;6.70;85.00
4215;DHT22;2121;48.062;7.850;2023-04-03T17:41:44;6.70;85.40
4215;DHT22;2121;48.062;7.850;2023-04-03T17:44:14;6.60;86.30
4215;DHT22;2121;48.062;7.850;2023-04-03T17:46:40;6.50;86.30
4215;DHT22;2121;48.062;7.850;2023-04-03T17:49:06;6.30;86.30
4215;DHT22;2121;48.062;7.850;2023-04-03T17:51:32;6.20;86.20
4215;DHT22;2121;48.062;7.850;2023-04-03T17:54:01;6.10;86.90
4215;DHT22;2121;48.062;7.850;2023-04-03T17:56:27;6.10;86.70
4215;DHT22;2121;48.062;7.850;2023-04-03T17:58:54;6.00;86.60
4215;DHT22;2121;48.062;7.850;2023-04-03T18:01:25;6.00;87.40
4215;DHT22;2121;48.062;7.850;2023-04-03T18:03:53;5.90;87.20
4215;DHT22;2121;48.062;7.850;2023-04-03T18:06:24;6.00;87.30
4215;DHT22;2121;48.062;7.850;2023-04-03T18:09:23;5.90;87.10
4215;DHT22;2121;48.062;7.850;2023-04-03T18:11:51;5.90;87.70
4215;DHT22;2121;48.062;7.850;2023-04-03T18:14:22;5.90;87.50
4215;DHT22;2121;48.062;7.850;2023-04-03T18:16:50;5.90;87.40
4215;DHT22;2121;48.062;7.850;2023-04-03T18:19:16;5.90;87.00
4215;DHT22;2121;48.062;7.850;2023-04-03T18:21:42;5.90;86.80
4215;DHT22;2121;48.062;7.850;2023-04-03T18:24:12;5.90;87.50